sensor_id;sensor_type;location;lat;lon;timestamp;P1;durP1;ratioP1;P2;durP2;ratioP2
21360;SDS011;10839;43.206;23.550;2023-02-12T00:02:16;40.80;;;16.65;;
21360;SDS011;10839;43.206;23.550;2023-02-12T00:04:42;38.85;;;16.02;;
21360;SDS011;10839;43.206;23.550;2023-02-12T00:07:08;37.25;;;17.90;;
21360;SDS011;10839;43.206;23.550;2023-02-12T00:09:35;40.05;;;16.20;;
21360;SDS011;10839;43.206;23.550;2023-02-12T00:12:02;47.20;;;19.00;;
21360;SDS011;10839;43.206;23.550;2023-02-12T00:14:28;41.53;;;18.45;;
21360;SDS011;10839;43.206;23.550;2023-02-12T00:16:54;38.47;;;16.08;;
21360;SDS011;10839;43.206;23.550;2023-02-12T00:19:20;50.60;;;18.80;;
21360;SDS011;10839;43.206;23.550;2023-02-12T00:21:46;43.78;;;19.10;;
21360;SDS011;10839;43.206;23.550;2023-02-12T00:24:11;53.03;;;20.65;;
21360;SDS011;10839;43.206;23.550;2023-02-12T00:26:38;45.80;;;18.40;;
21360;SDS011;10839;43.206;23.550;2023-02-12T00:29:03;42.88;;;17.85;;
21360;SDS011;10839;43.206;23.550;2023-02-12T00:31:30;44.03;;;19.25;;
21360;SDS011;10839;43.206;23.550;2023-02-12T00:33:58;41.03;;;16.75;;
21360;SDS011;10839;43.206;23.550;2023-02-12T00:36:27;36.97;;;15.63;;
21360;SDS011;10839;43.206;23.550;2023-02-12T00:38:55;39.22;;;16.77;;
21360;SDS011;10839;43.206;23.550;2023-02-12T00:41:23;45.10;;;16.05;;
21360;SDS011;10839;43.206;23.550;2023-02-12T00:43:49;54.40;;;19.13;;
21360;SDS011;10839;43.206;23.550;2023-02-12T00:46:15;40.80;;;15.80;;
21360;SDS011;10839;43.206;23.550;2023-02-12T00:48:42;37.13;;;15.13;;
21360;SDS011;10839;43.206;23.550;2023-02-12T00:51:09;31.13;;;12.07;;
21360;SDS011;10839;43.206;23.550;2023-02-12T00:53:35;28.48;;;10.15;;
21360;SDS011;10839;43.206;23.550;2023-02-12T00:56:01;30.33;;;10.15;;
21360;SDS011;10839;43.206;23.550;2023-02-12T00:58:27;26.77;;;10.20;;
21360;SDS011;10839;43.206;23.550;2023-02-12T01:00:54;51.28;;;14.55;;
21360;SDS011;10839;43.206;23.550;2023-02-12T01:03:21;31.15;;;10.38;;
21360;SDS011;10839;43.206;23.550;2023-02-12T01:05:48;37.10;;;12.48;;
21360;SDS011;10839;43.206;23.550;2023-02-12T01:08:14;61.30;;;16.95;;
21360;SDS011;10839;43.206;23.550;2023-02-12T01:10:41;55.50;;;15.82;;
21360;SDS011;10839;43.206;23.550;2023-02-12T01:13:11;33.28;;;10.00;;
21360;SDS011;10839;43.206;23.550;2023-02-12T01:15:38;29.15;;;9.45;;
21360;SDS011;10839;43.206;23.550;2023-02-12T01:18:04;17.85;;;7.95;;
21360;SDS011;10839;43.206;23.550;2023-02-12T01:20:30;22.20;;;9.27;;
21360;SDS011;10839;43.206;23.550;2023-02-12T01:22:56;25.02;;;9.77;;
21360;SDS011;10839;43.206;23.550;2023-02-12T01:25:21;21.13;;;9.00;;
21360;SDS011;10839;43.206;23.550;2023-02-12T01:27:48;21.75;;;8.13;;
21360;SDS011;10839;43.206;23.550;2023-02-12T01:30:17;17.50;;;8.02;;
21360;SDS011;10839;43.206;23.550;2023-02-12T01:32:46;19.63;;;8.73;;
21360;SDS011;10839;43.206;23.550;2023-02-12T01:35:12;21.90;;;8.82;;
21360;SDS011;10839;43.206;23.550;2023-02-12T01:37:39;19.38;;;8.18;;
21360;SDS011;10839;43.206;23.550;2023-02-12T01:40:06;18.00;;;7.97;;
21360;SDS011;10839;43.206;23.550;2023-02-12T01:42:34;17.30;;;7.88;;
21360;SDS011;10839;43.206;23.550;2023-02-12T01:47:39;16.90;;;7.40;;
21360;SDS011;10839;43.206;23.550;2023-02-12T01:50:13;18.40;;;8.25;;
21360;SDS011;10839;43.206;23.550;2023-02-12T01:52:52;14.93;;;5.95;;
21360;SDS011;10839;43.206;23.550;2023-02-12T01:55:21;24.13;;;9.25;;
21360;SDS011;10839;43.206;23.550;2023-02-12T01:57:47;23.05;;;9.40;;
21360;SDS011;10839;43.206;23.550;2023-02-12T02:00:18;26.73;;;11.32;;
21360;SDS011;10839;43.206;23.550;2023-02-12T02:06:07;19.80;;;9.00;;
21360;SDS011;10839;43.206;23.550;2023-02-12T02:08:19;28.08;;;10.35;;
21360;SDS011;10839;43.206;23.550;2023-02-12T02:10:45;25.55;;;10.25;;
21360;SDS011;10839;43.206;23.550;2023-02-12T02:13:13;21.63;;;9.18;;
21360;SDS011;10839;43.206;23.550;2023-02-12T02:15:59;18.52;;;8.60;;
21360;SDS011;10839;43.206;23.550;2023-02-12T02:18:37;17.40;;;7.90;;
21360;SDS011;10839;43.206;23.550;2023-02-12T02:33:47;17.10;;;6.97;;
21360;SDS011;10839;43.206;23.550;2023-02-12T02:38:50;20.50;;;8.52;;
21360;SDS011;10839;43.206;23.550;2023-02-12T02:44:02;17.75;;;8.30;;
21360;SDS011;10839;43.206;23.550;2023-02-12T02:49:46;18.38;;;7.50;;
21360;SDS011;10839;43.206;23.550;2023-02-12T02:52:13;15.73;;;7.28;;
21360;SDS011;10839;43.206;23.550;2023-02-12T02:54:45;18.23;;;6.73;;
21360;SDS011;10839;43.206;23.550;2023-02-12T02:59:46;18.92;;;8.02;;
21360;SDS011;10839;43.206;23.550;2023-02-12T03:02:17;20.83;;;8.27;;
21360;SDS011;10839;43.206;23.550;2023-02-12T03:04:48;21.60;;;9.07;;
21360;SDS011;10839;43.206;23.550;2023-02-12T03:07:24;19.88;;;7.70;;
21360;SDS011;10839;43.206;23.550;2023-02-12T03:09:58;13.25;;;5.93;;
21360;SDS011;10839;43.206;23.550;2023-02-12T03:12:54;14.65;;;7.03;;
21360;SDS011;10839;43.206;23.550;2023-02-12T03:15:43;18.17;;;8.27;;
21360;SDS011;10839;43.206;23.550;2023-02-12T03:18:18;17.60;;;8.32;;
21360;SDS011;10839;43.206;23.550;2023-02-12T03:20:52;16.15;;;7.88;;
21360;SDS011;10839;43.206;23.550;2023-02-12T03:23:30;16.88;;;7.65;;
21360;SDS011;10839;43.206;23.550;2023-02-12T03:26:06;20.33;;;8.60;;
21360;SDS011;10839;43.206;23.550;2023-02-12T03:28:36;23.58;;;9.07;;
21360;SDS011;10839;43.206;23.550;2023-02-12T03:33:43;17.95;;;7.50;;
21360;SDS011;10839;43.206;23.550;2023-02-12T03:50:37;16.80;;;7.68;;
21360;SDS011;10839;43.206;23.550;2023-02-12T03:53:26;17.88;;;6.97;;
21360;SDS011;10839;43.206;23.550;2023-02-12T03:55:55;13.30;;;6.75;;
21360;SDS011;10839;43.206;23.550;2023-02-12T03:58:28;15.65;;;7.47;;
21360;SDS011;10839;43.206;23.550;2023-02-12T04:00:56;15.02;;;6.68;;
21360;SDS011;10839;43.206;23.550;2023-02-12T04:03:24;14.75;;;7.18;;
21360;SDS011;10839;43.206;23.550;2023-02-12T04:05:51;17.05;;;7.00;;
21360;SDS011;10839;43.206;23.550;2023-02-12T04:08:16;16.55;;;7.07;;
21360;SDS011;10839;43.206;23.550;2023-02-12T04:10:52;18.27;;;7.50;;
21360;SDS011;10839;43.206;23.550;2023-02-12T04:13:27;24.50;;;7.20;;
21360;SDS011;10839;43.206;23.550;2023-02-12T04:16:06;18.98;;;8.45;;
21360;SDS011;10839;43.206;23.550;2023-02-12T04:18:41;20.23;;;8.32;;
21360;SDS011;10839;43.206;23.550;2023-02-12T04:21:17;18.08;;;7.88;;
21360;SDS011;10839;43.206;23.550;2023-02-12T04:37:41;18.27;;;8.68;;
21360;SDS011;10839;43.206;23.550;2023-02-12T04:40:14;19.40;;;9.00;;
21360;SDS011;10839;43.206;23.550;2023-02-12T04:42:49;21.13;;;8.95;;
21360;SDS011;10839;43.206;23.550;2023-02-12T04:45:24;19.67;;;8.70;;
21360;SDS011;10839;43.206;23.550;2023-02-12T04:47:51;22.50;;;9.45;;
21360;SDS011;10839;43.206;23.550;2023-02-12T04:50:17;21.20;;;10.20;;
21360;SDS011;10839;43.206;23.550;2023-02-12T04:52:44;21.38;;;9.40;;
21360;SDS011;10839;43.206;23.550;2023-02-12T04:55:10;24.27;;;11.05;;
21360;SDS011;10839;43.206;23.550;2023-02-12T04:57:36;34.75;;;16.58;;
21360;SDS011;10839;43.206;23.550;2023-02-12T05:00:03;18.23;;;9.52;;
21360;SDS011;10839;43.206;23.550;2023-02-12T05:02:33;18.98;;;9.10;;
21360;SDS011;10839;43.206;23.550;2023-02-12T05:04:59;21.60;;;9.80;;
21360;SDS011;10839;43.206;23.550;2023-02-12T05:07:25;20.75;;;9.35;;
21360;SDS011;10839;43.206;23.550;2023-02-12T05:09:51;23.38;;;10.88;;
21360;SDS011;10839;43.206;23.550;2023-02-12T05:12:17;26.90;;;11.18;;
21360;SDS011;10839;43.206;23.550;2023-02-12T05:14:43;20.67;;;10.20;;
21360;SDS011;10839;43.206;23.550;2023-02-12T05:17:09;22.08;;;10.75;;
21360;SDS011;10839;43.206;23.550;2023-02-12T05:19:36;27.77;;;11.57;;
21360;SDS011;10839;43.206;23.550;2023-02-12T05:22:01;29.55;;;13.07;;
21360;SDS011;10839;43.206;23.550;2023-02-12T05:24:28;92.40;;;40.80;;
21360;SDS011;10839;43.206;23.550;2023-02-12T05:26:53;30.95;;;13.90;;
21360;SDS011;10839;43.206;23.550;2023-02-12T05:29:19;29.33;;;12.63;;
21360;SDS011;10839;43.206;23.550;2023-02-12T05:31:45;21.02;;;10.18;;
21360;SDS011;10839;43.206;23.550;2023-02-12T05:34:11;19.25;;;9.68;;
21360;SDS011;10839;43.206;23.550;2023-02-12T05:36:37;21.55;;;9.88;;
21360;SDS011;10839;43.206;23.550;2023-02-12T05:39:03;24.75;;;10.95;;
21360;SDS011;10839;43.206;23.550;2023-02-12T05:41:29;26.63;;;11.50;;
21360;SDS011;10839;43.206;23.550;2023-02-12T05:43:59;38.85;;;15.35;;
21360;SDS011;10839;43.206;23.550;2023-02-12T05:46:26;25.13;;;11.48;;
21360;SDS011;10839;43.206;23.550;2023-02-12T05:48:52;28.70;;;12.95;;
21360;SDS011;10839;43.206;23.550;2023-02-12T05:51:20;28.77;;;14.13;;
21360;SDS011;10839;43.206;23.550;2023-02-12T05:53:48;24.13;;;11.48;;
21360;SDS011;10839;43.206;23.550;2023-02-12T05:56:15;24.42;;;11.10;;
21360;SDS011;10839;43.206;23.550;2023-02-12T05:58:44;27.67;;;12.18;;
21360;SDS011;10839;43.206;23.550;2023-02-12T06:01:16;28.80;;;12.70;;
21360;SDS011;10839;43.206;23.550;2023-02-12T06:03:46;27.05;;;12.52;;
21360;SDS011;10839;43.206;23.550;2023-02-12T06:06:12;26.05;;;12.13;;
21360;SDS011;10839;43.206;23.550;2023-02-12T06:08:39;28.02;;;12.27;;
21360;SDS011;10839;43.206;23.550;2023-02-12T06:11:07;26.95;;;11.60;;
21360;SDS011;10839;43.206;23.550;2023-02-12T06:13:37;25.75;;;11.63;;
21360;SDS011;10839;43.206;23.550;2023-02-12T06:16:04;27.23;;;12.18;;
21360;SDS011;10839;43.206;23.550;2023-02-12T06:18:30;38.22;;;17.85;;
21360;SDS011;10839;43.206;23.550;2023-02-12T06:20:56;61.92;;;23.30;;
21360;SDS011;10839;43.206;23.550;2023-02-12T06:23:22;39.75;;;15.70;;
21360;SDS011;10839;43.206;23.550;2023-02-12T06:25:49;55.97;;;20.48;;
21360;SDS011;10839;43.206;23.550;2023-02-12T06:28:16;34.22;;;13.82;;
21360;SDS011;10839;43.206;23.550;2023-02-12T06:30:42;25.15;;;12.00;;
21360;SDS011;10839;43.206;23.550;2023-02-12T06:33:08;27.70;;;11.75;;
21360;SDS011;10839;43.206;23.550;2023-02-12T06:35:34;29.30;;;12.88;;
21360;SDS011;10839;43.206;23.550;2023-02-12T06:38:01;25.55;;;12.35;;
21360;SDS011;10839;43.206;23.550;2023-02-12T06:40:26;28.02;;;13.60;;
21360;SDS011;10839;43.206;23.550;2023-02-12T06:42:52;25.17;;;12.63;;
21360;SDS011;10839;43.206;23.550;2023-02-12T06:45:18;24.52;;;12.00;;
21360;SDS011;10839;43.206;23.550;2023-02-12T06:47:44;29.05;;;11.43;;
21360;SDS011;10839;43.206;23.550;2023-02-12T06:50:10;23.15;;;11.30;;
21360;SDS011;10839;43.206;23.550;2023-02-12T06:52:36;26.42;;;13.15;;
21360;SDS011;10839;43.206;23.550;2023-02-12T06:55:02;27.67;;;13.32;;
21360;SDS011;10839;43.206;23.550;2023-02-12T06:57:28;26.77;;;13.65;;
21360;SDS011;10839;43.206;23.550;2023-02-12T06:59:54;27.17;;;13.15;;
21360;SDS011;10839;43.206;23.550;2023-02-12T07:02:21;28.67;;;13.20;;
21360;SDS011;10839;43.206;23.550;2023-02-12T07:04:47;26.08;;;13.00;;
21360;SDS011;10839;43.206;23.550;2023-02-12T07:07:12;32.42;;;14.38;;
21360;SDS011;10839;43.206;23.550;2023-02-12T07:09:38;30.42;;;14.88;;
21360;SDS011;10839;43.206;23.550;2023-02-12T07:12:04;30.00;;;13.88;;
21360;SDS011;10839;43.206;23.550;2023-02-12T07:14:31;29.60;;;14.48;;
21360;SDS011;10839;43.206;23.550;2023-02-12T07:16:57;32.00;;;15.18;;
21360;SDS011;10839;43.206;23.550;2023-02-12T07:19:23;26.95;;;14.43;;
21360;SDS011;10839;43.206;23.550;2023-02-12T07:21:49;32.45;;;15.38;;
21360;SDS011;10839;43.206;23.550;2023-02-12T07:24:15;43.05;;;21.98;;
21360;SDS011;10839;43.206;23.550;2023-02-12T07:26:42;46.80;;;23.73;;
21360;SDS011;10839;43.206;23.550;2023-02-12T07:29:08;41.97;;;19.35;;
21360;SDS011;10839;43.206;23.550;2023-02-12T07:31:34;37.75;;;18.23;;
21360;SDS011;10839;43.206;23.550;2023-02-12T07:34:00;45.35;;;20.08;;
21360;SDS011;10839;43.206;23.550;2023-02-12T07:36:27;95.45;;;38.45;;
21360;SDS011;10839;43.206;23.550;2023-02-12T07:38:55;43.85;;;21.70;;
21360;SDS011;10839;43.206;23.550;2023-02-12T07:41:23;36.05;;;18.10;;
21360;SDS011;10839;43.206;23.550;2023-02-12T07:43:52;34.92;;;16.95;;
21360;SDS011;10839;43.206;23.550;2023-02-12T07:46:22;34.30;;;16.00;;
21360;SDS011;10839;43.206;23.550;2023-02-12T07:48:56;33.13;;;16.48;;
21360;SDS011;10839;43.206;23.550;2023-02-12T07:51:23;30.20;;;15.07;;
21360;SDS011;10839;43.206;23.550;2023-02-12T07:53:50;31.35;;;15.90;;
21360;SDS011;10839;43.206;23.550;2023-02-12T07:56:17;39.55;;;17.08;;
21360;SDS011;10839;43.206;23.550;2023-02-12T07:58:49;43.40;;;21.83;;
21360;SDS011;10839;43.206;23.550;2023-02-12T08:01:18;41.88;;;18.60;;
21360;SDS011;10839;43.206;23.550;2023-02-12T08:03:46;37.65;;;18.83;;
21360;SDS011;10839;43.206;23.550;2023-02-12T08:06:14;36.95;;;15.98;;
21360;SDS011;10839;43.206;23.550;2023-02-12T08:08:46;23.70;;;12.13;;
21360;SDS011;10839;43.206;23.550;2023-02-12T08:11:12;30.63;;;16.20;;
21360;SDS011;10839;43.206;23.550;2023-02-12T08:13:39;34.15;;;16.83;;
21360;SDS011;10839;43.206;23.550;2023-02-12T08:16:06;35.75;;;17.45;;
21360;SDS011;10839;43.206;23.550;2023-02-12T08:18:35;33.03;;;15.88;;
21360;SDS011;10839;43.206;23.550;2023-02-12T08:21:02;36.08;;;17.40;;
21360;SDS011;10839;43.206;23.550;2023-02-12T08:23:30;34.20;;;17.60;;
21360;SDS011;10839;43.206;23.550;2023-02-12T08:26:31;50.45;;;23.23;;
21360;SDS011;10839;43.206;23.550;2023-02-12T08:28:54;60.38;;;25.75;;
21360;SDS011;10839;43.206;23.550;2023-02-12T08:31:24;51.47;;;23.55;;
21360;SDS011;10839;43.206;23.550;2023-02-12T08:33:52;40.42;;;20.73;;
21360;SDS011;10839;43.206;23.550;2023-02-12T08:36:20;40.58;;;19.40;;
21360;SDS011;10839;43.206;23.550;2023-02-12T08:38:50;41.50;;;20.63;;
21360;SDS011;10839;43.206;23.550;2023-02-12T08:41:18;49.08;;;22.20;;
21360;SDS011;10839;43.206;23.550;2023-02-12T08:43:46;40.58;;;19.38;;
21360;SDS011;10839;43.206;23.550;2023-02-12T08:46:15;42.58;;;21.02;;
21360;SDS011;10839;43.206;23.550;2023-02-12T08:48:44;37.22;;;18.55;;
21360;SDS011;10839;43.206;23.550;2023-02-12T08:51:11;39.80;;;19.65;;
21360;SDS011;10839;43.206;23.550;2023-02-12T08:53:46;40.70;;;19.80;;
21360;SDS011;10839;43.206;23.550;2023-02-12T08:56:14;41.25;;;19.73;;
21360;SDS011;10839;43.206;23.550;2023-02-12T08:58:42;45.90;;;21.88;;
21360;SDS011;10839;43.206;23.550;2023-02-12T09:01:12;35.22;;;18.50;;
21360;SDS011;10839;43.206;23.550;2023-02-12T09:03:40;41.70;;;19.90;;
21360;SDS011;10839;43.206;23.550;2023-02-12T09:06:07;32.80;;;17.60;;
21360;SDS011;10839;43.206;23.550;2023-02-12T09:08:33;35.97;;;18.20;;
21360;SDS011;10839;43.206;23.550;2023-02-12T09:11:05;39.00;;;19.35;;
21360;SDS011;10839;43.206;23.550;2023-02-12T09:13:34;47.10;;;23.60;;
21360;SDS011;10839;43.206;23.550;2023-02-12T09:16:01;40.40;;;20.50;;
21360;SDS011;10839;43.206;23.550;2023-02-12T09:18:29;40.53;;;20.10;;
21360;SDS011;10839;43.206;23.550;2023-02-12T09:20:59;36.60;;;18.95;;
21360;SDS011;10839;43.206;23.550;2023-02-12T09:23:26;39.25;;;18.75;;
21360;SDS011;10839;43.206;23.550;2023-02-12T09:25:52;46.95;;;19.83;;
21360;SDS011;10839;43.206;23.550;2023-02-12T09:28:18;47.08;;;21.85;;
21360;SDS011;10839;43.206;23.550;2023-02-12T09:30:44;35.58;;;18.52;;
21360;SDS011;10839;43.206;23.550;2023-02-12T09:33:10;45.85;;;21.58;;
21360;SDS011;10839;43.206;23.550;2023-02-12T09:35:37;45.45;;;21.98;;
21360;SDS011;10839;43.206;23.550;2023-02-12T09:38:04;40.72;;;21.10;;
21360;SDS011;10839;43.206;23.550;2023-02-12T09:43:05;40.05;;;19.85;;
21360;SDS011;10839;43.206;23.550;2023-02-12T09:45:51;39.22;;;20.40;;
21360;SDS011;10839;43.206;23.550;2023-02-12T09:48:27;45.35;;;22.08;;
21360;SDS011;10839;43.206;23.550;2023-02-12T09:51:13;45.55;;;21.73;;
21360;SDS011;10839;43.206;23.550;2023-02-12T09:53:39;41.05;;;19.13;;
21360;SDS011;10839;43.206;23.550;2023-02-12T09:56:14;39.42;;;19.73;;
21360;SDS011;10839;43.206;23.550;2023-02-12T10:01:20;43.22;;;21.98;;
21360;SDS011;10839;43.206;23.550;2023-02-12T10:03:48;39.42;;;20.52;;
21360;SDS011;10839;43.206;23.550;2023-02-12T10:06:16;44.15;;;22.00;;
21360;SDS011;10839;43.206;23.550;2023-02-12T10:23:36;54.55;;;25.00;;
21360;SDS011;10839;43.206;23.550;2023-02-12T10:28:58;82.45;;;36.50;;
21360;SDS011;10839;43.206;23.550;2023-02-12T10:31:35;101.60;;;46.60;;
21360;SDS011;10839;43.206;23.550;2023-02-12T10:34:21;106.78;;;42.60;;
21360;SDS011;10839;43.206;23.550;2023-02-12T10:36:53;95.80;;;38.38;;
21360;SDS011;10839;43.206;23.550;2023-02-12T10:39:31;72.95;;;32.58;;
21360;SDS011;10839;43.206;23.550;2023-02-12T10:42:11;57.90;;;28.20;;
21360;SDS011;10839;43.206;23.550;2023-02-12T10:44:42;55.00;;;28.52;;
21360;SDS011;10839;43.206;23.550;2023-02-12T10:47:16;54.60;;;28.10;;
21360;SDS011;10839;43.206;23.550;2023-02-12T10:49:54;68.35;;;33.92;;
21360;SDS011;10839;43.206;23.550;2023-02-12T10:52:44;54.40;;;29.20;;
21360;SDS011;10839;43.206;23.550;2023-02-12T10:55:34;52.78;;;27.33;;
21360;SDS011;10839;43.206;23.550;2023-02-12T10:58:02;70.63;;;33.60;;
21360;SDS011;10839;43.206;23.550;2023-02-12T11:00:33;72.07;;;33.35;;
21360;SDS011;10839;43.206;23.550;2023-02-12T11:05:38;59.28;;;30.58;;
21360;SDS011;10839;43.206;23.550;2023-02-12T11:08:06;58.35;;;28.85;;
21360;SDS011;10839;43.206;23.550;2023-02-12T11:13:03;45.92;;;24.83;;
21360;SDS011;10839;43.206;23.550;2023-02-12T11:15:35;48.20;;;25.58;;
21360;SDS011;10839;43.206;23.550;2023-02-12T11:18:17;51.50;;;25.48;;
21360;SDS011;10839;43.206;23.550;2023-02-12T11:20:48;48.72;;;24.25;;
21360;SDS011;10839;43.206;23.550;2023-02-12T11:23:32;44.78;;;24.13;;
21360;SDS011;10839;43.206;23.550;2023-02-12T11:32:02;48.53;;;25.65;;
21360;SDS011;10839;43.206;23.550;2023-02-12T11:34:33;43.67;;;22.65;;
21360;SDS011;10839;43.206;23.550;2023-02-12T11:36:59;43.42;;;22.98;;
21360;SDS011;10839;43.206;23.550;2023-02-12T11:39:32;44.28;;;24.23;;
21360;SDS011;10839;43.206;23.550;2023-02-12T11:42:02;46.25;;;24.33;;
21360;SDS011;10839;43.206;23.550;2023-02-12T11:44:31;47.38;;;24.75;;
21360;SDS011;10839;43.206;23.550;2023-02-12T11:47:03;47.63;;;23.52;;
21360;SDS011;10839;43.206;23.550;2023-02-12T11:49:36;57.13;;;30.30;;
21360;SDS011;10839;43.206;23.550;2023-02-12T11:52:05;51.38;;;26.90;;
21360;SDS011;10839;43.206;23.550;2023-02-12T11:54:39;41.97;;;23.73;;
21360;SDS011;10839;43.206;23.550;2023-02-12T11:57:12;47.00;;;23.73;;
21360;SDS011;10839;43.206;23.550;2023-02-12T12:00:15;45.90;;;24.92;;
21360;SDS011;10839;43.206;23.550;2023-02-12T12:05:50;41.72;;;24.52;;
21360;SDS011;10839;43.206;23.550;2023-02-12T12:08:22;48.67;;;25.42;;
21360;SDS011;10839;43.206;23.550;2023-02-12T12:10:56;45.70;;;24.58;;
21360;SDS011;10839;43.206;23.550;2023-02-12T12:13:26;42.30;;;23.13;;
21360;SDS011;10839;43.206;23.550;2023-02-12T12:16:08;46.85;;;24.25;;
21360;SDS011;10839;43.206;23.550;2023-02-12T12:19:02;49.28;;;24.17;;
21360;SDS011;10839;43.206;23.550;2023-02-12T12:22:08;50.33;;;24.95;;
21360;SDS011;10839;43.206;23.550;2023-02-12T12:27:11;44.40;;;23.80;;
21360;SDS011;10839;43.206;23.550;2023-02-12T12:30:15;100.22;;;46.47;;
21360;SDS011;10839;43.206;23.550;2023-02-12T12:33:02;55.28;;;29.88;;
21360;SDS011;10839;43.206;23.550;2023-02-12T12:35:37;54.63;;;27.83;;
21360;SDS011;10839;43.206;23.550;2023-02-12T12:38:22;59.75;;;29.42;;
21360;SDS011;10839;43.206;23.550;2023-02-12T12:41:14;51.50;;;27.52;;
21360;SDS011;10839;43.206;23.550;2023-02-12T12:46:43;46.78;;;25.42;;
21360;SDS011;10839;43.206;23.550;2023-02-12T12:58:14;47.58;;;25.30;;
21360;SDS011;10839;43.206;23.550;2023-02-12T13:08:57;83.68;;;36.80;;
21360;SDS011;10839;43.206;23.550;2023-02-12T13:14:36;73.18;;;35.45;;
21360;SDS011;10839;43.206;23.550;2023-02-12T13:22:58;57.80;;;29.23;;
21360;SDS011;10839;43.206;23.550;2023-02-12T13:28:45;51.47;;;27.00;;
21360;SDS011;10839;43.206;23.550;2023-02-12T13:31:18;55.72;;;27.80;;
21360;SDS011;10839;43.206;23.550;2023-02-12T13:33:50;59.72;;;32.70;;
21360;SDS011;10839;43.206;23.550;2023-02-12T13:36:20;64.88;;;32.50;;
21360;SDS011;10839;43.206;23.550;2023-02-12T13:38:48;61.63;;;30.05;;
21360;SDS011;10839;43.206;23.550;2023-02-12T13:41:35;51.85;;;28.05;;
21360;SDS011;10839;43.206;23.550;2023-02-12T13:44:15;60.13;;;30.70;;
21360;SDS011;10839;43.206;23.550;2023-02-12T13:58:09;58.50;;;27.98;;
21360;SDS011;10839;43.206;23.550;2023-02-12T14:03:22;51.28;;;25.90;;
21360;SDS011;10839;43.206;23.550;2023-02-12T14:06:05;50.67;;;27.33;;
21360;SDS011;10839;43.206;23.550;2023-02-12T14:08:35;49.58;;;25.27;;
21360;SDS011;10839;43.206;23.550;2023-02-12T14:11:06;49.47;;;25.08;;
21360;SDS011;10839;43.206;23.550;2023-02-12T14:13:45;45.63;;;24.38;;
21360;SDS011;10839;43.206;23.550;2023-02-12T14:22:13;76.38;;;37.95;;
21360;SDS011;10839;43.206;23.550;2023-02-12T14:24:59;75.80;;;37.95;;
21360;SDS011;10839;43.206;23.550;2023-02-12T14:37:50;66.70;;;32.92;;
21360;SDS011;10839;43.206;23.550;2023-02-12T14:45:53;64.65;;;33.03;;
21360;SDS011;10839;43.206;23.550;2023-02-12T14:51:07;56.38;;;29.60;;
21360;SDS011;10839;43.206;23.550;2023-02-12T14:53:42;63.80;;;32.70;;
21360;SDS011;10839;43.206;23.550;2023-02-12T14:56:10;62.80;;;31.45;;
21360;SDS011;10839;43.206;23.550;2023-02-12T14:58:37;63.00;;;30.50;;
21360;SDS011;10839;43.206;23.550;2023-02-12T15:01:03;58.10;;;29.40;;
21360;SDS011;10839;43.206;23.550;2023-02-12T15:03:33;57.83;;;29.40;;
21360;SDS011;10839;43.206;23.550;2023-02-12T15:06:06;61.05;;;32.58;;
21360;SDS011;10839;43.206;23.550;2023-02-12T15:08:43;61.08;;;32.60;;
21360;SDS011;10839;43.206;23.550;2023-02-12T15:13:50;70.75;;;34.92;;
21360;SDS011;10839;43.206;23.550;2023-02-12T15:16:41;62.63;;;32.88;;
21360;SDS011;10839;43.206;23.550;2023-02-12T15:19:20;82.00;;;40.63;;
21360;SDS011;10839;43.206;23.550;2023-02-12T15:22:13;72.70;;;37.42;;
21360;SDS011;10839;43.206;23.550;2023-02-12T15:28:02;88.07;;;42.42;;
21360;SDS011;10839;43.206;23.550;2023-02-12T15:30:41;105.55;;;51.45;;
21360;SDS011;10839;43.206;23.550;2023-02-12T15:33:07;114.72;;;51.53;;
21360;SDS011;10839;43.206;23.550;2023-02-12T15:35:37;97.13;;;46.00;;
21360;SDS011;10839;43.206;23.550;2023-02-12T15:38:14;72.93;;;37.97;;
21360;SDS011;10839;43.206;23.550;2023-02-12T15:40:53;101.45;;;48.63;;
21360;SDS011;10839;43.206;23.550;2023-02-12T15:43:25;107.35;;;51.58;;
21360;SDS011;10839;43.206;23.550;2023-02-12T15:45:54;116.20;;;54.42;;
21360;SDS011;10839;43.206;23.550;2023-02-12T15:48:21;87.75;;;42.53;;
21360;SDS011;10839;43.206;23.550;2023-02-12T15:53:23;80.15;;;39.55;;
21360;SDS011;10839;43.206;23.550;2023-02-12T15:55:54;78.93;;;39.83;;
21360;SDS011;10839;43.206;23.550;2023-02-12T15:59:03;80.93;;;39.33;;
21360;SDS011;10839;43.206;23.550;2023-02-12T16:01:15;63.35;;;31.90;;
21360;SDS011;10839;43.206;23.550;2023-02-12T16:03:46;75.95;;;37.90;;
21360;SDS011;10839;43.206;23.550;2023-02-12T16:06:17;78.15;;;35.47;;
21360;SDS011;10839;43.206;23.550;2023-02-12T16:08:46;89.70;;;36.83;;
21360;SDS011;10839;43.206;23.550;2023-02-12T16:11:19;96.38;;;42.00;;
21360;SDS011;10839;43.206;23.550;2023-02-12T16:16:18;116.22;;;49.28;;
21360;SDS011;10839;43.206;23.550;2023-02-12T16:21:49;131.77;;;50.97;;
21360;SDS011;10839;43.206;23.550;2023-02-12T16:24:27;93.70;;;39.22;;
21360;SDS011;10839;43.206;23.550;2023-02-12T16:26:54;142.82;;;48.83;;
21360;SDS011;10839;43.206;23.550;2023-02-12T16:29:22;147.48;;;48.80;;
21360;SDS011;10839;43.206;23.550;2023-02-12T16:31:56;161.25;;;58.80;;
21360;SDS011;10839;43.206;23.550;2023-02-12T16:34:30;155.73;;;56.20;;
21360;SDS011;10839;43.206;23.550;2023-02-12T16:36:58;166.65;;;61.90;;
21360;SDS011;10839;43.206;23.550;2023-02-12T16:44:49;142.38;;;50.42;;
21360;SDS011;10839;43.206;23.550;2023-02-12T16:47:21;146.88;;;55.78;;
21360;SDS011;10839;43.206;23.550;2023-02-12T16:49:56;194.50;;;68.53;;
21360;SDS011;10839;43.206;23.550;2023-02-12T16:52:34;185.63;;;67.93;;
21360;SDS011;10839;43.206;23.550;2023-02-12T16:55:05;179.63;;;65.45;;
21360;SDS011;10839;43.206;23.550;2023-02-12T16:57:42;126.28;;;50.40;;
21360;SDS011;10839;43.206;23.550;2023-02-12T17:00:14;119.70;;;50.92;;
21360;SDS011;10839;43.206;23.550;2023-02-12T17:02:41;95.68;;;40.78;;
21360;SDS011;10839;43.206;23.550;2023-02-12T17:05:07;83.05;;;38.90;;
21360;SDS011;10839;43.206;23.550;2023-02-12T17:07:35;86.10;;;40.50;;
21360;SDS011;10839;43.206;23.550;2023-02-12T17:10:01;99.45;;;47.03;;
21360;SDS011;10839;43.206;23.550;2023-02-12T17:12:28;129.75;;;62.47;;
21360;SDS011;10839;43.206;23.550;2023-02-12T17:14:54;74.30;;;36.20;;
21360;SDS011;10839;43.206;23.550;2023-02-12T17:17:20;70.85;;;36.40;;
21360;SDS011;10839;43.206;23.550;2023-02-12T17:19:46;77.93;;;39.72;;
21360;SDS011;10839;43.206;23.550;2023-02-12T17:22:17;87.57;;;42.17;;
21360;SDS011;10839;43.206;23.550;2023-02-12T17:24:46;96.53;;;43.08;;
21360;SDS011;10839;43.206;23.550;2023-02-12T17:27:16;94.65;;;46.53;;
21360;SDS011;10839;43.206;23.550;2023-02-12T17:29:43;111.20;;;51.83;;
21360;SDS011;10839;43.206;23.550;2023-02-12T17:32:09;128.35;;;57.40;;
21360;SDS011;10839;43.206;23.550;2023-02-12T17:34:35;120.47;;;54.45;;
21360;SDS011;10839;43.206;23.550;2023-02-12T17:37:04;107.22;;;48.92;;
21360;SDS011;10839;43.206;23.550;2023-02-12T17:39:31;106.00;;;49.35;;
21360;SDS011;10839;43.206;23.550;2023-02-12T17:41:57;109.00;;;51.83;;